Ambler, Pennsylvania
Current Conditions -  °F | °C
As of 12:55 PM on Thursday 23 Oct 2014 (Local Time) from KLOM Reporting Station
Broken Clouds Broken Clouds  
Wind Chill: 54°   Ceiling: 4200
Heat Index: 54°   Visibility: 10mi
Dew Point: 46°   Wind: 9mph
Humidity: 77%   Direction: 330°NNW
Pressure: 29.77"   Gusts: 17mph
Location:  40.16°N, 75.22°W
Report Text: KLOM 231655Z AUTO 33008G15KT 300V010 10SM SCT009 SCT016 BKN042 12/08 A2977 RMK AO1
Loading
Personal Weather Stations






























Interactive Weather Map
Tropical Storm Tracking
New forecast layout! Learn more

10-Day Weather Forecast

Advertisements
Track Severe Weather on mobile